createdAt,value
2018-12-10T00:00:58.283Z,1.20
2018-12-10T00:05:54.110Z,1.30
2018-12-10T00:10:49.935Z,1.40
2018-12-10T00:15:45.980Z,1.50
2018-12-10T00:20:41.778Z,1.50
2018-12-10T00:25:38.497Z,1.40
2018-12-10T00:30:34.316Z,1.60
2018-12-10T00:35:30.774Z,1.97
2018-12-10T00:45:30.098Z,2.57
2018-12-10T00:50:25.993Z,2.37
2018-12-10T00:55:22.104Z,2.80
2018-12-10T01:00:19.047Z,3.07
2018-12-10T01:05:14.965Z,2.50
2018-12-10T01:10:11.556Z,3.07
2018-12-10T01:15:07.498Z,2.40
2018-12-10T01:20:04.037Z,2.17
2018-12-10T01:24:59.964Z,2.47
2018-12-10T01:29:55.839Z,2.40
2018-12-10T01:34:52.481Z,2.47
2018-12-10T01:39:49.328Z,2.20
2018-12-10T01:44:48.548Z,3.00
2018-12-10T01:49:44.866Z,2.27
2018-12-10T01:54:40.784Z,2.57
2018-12-10T02:04:56.915Z,2.80
2018-12-10T02:09:52.919Z,1.80
2018-12-10T02:25:21.474Z,2.60
2018-12-10T03:17:41.058Z,2.00
2018-12-10T03:33:09.122Z,1.40
2018-12-10T03:38:05.037Z,2.00
2018-12-10T03:43:00.974Z,1.70
2018-12-10T03:53:07.014Z,1.93
2018-12-10T03:58:02.868Z,1.90
2018-12-10T04:02:58.749Z,1.70
2018-12-10T04:07:55.526Z,2.20
2018-12-10T04:12:51.674Z,1.63
2018-12-10T04:17:47.634Z,1.70
2018-12-10T04:22:43.635Z,1.10
2018-12-10T04:27:39.657Z,1.37
2018-12-10T04:32:36.209Z,1.60
2018-12-10T04:37:32.599Z,1.50
2018-12-10T04:42:28.448Z,1.57
2018-12-10T04:47:24.305Z,1.47
2018-12-10T04:52:20.162Z,1.30
2018-12-10T04:57:16.088Z,1.47
2018-12-10T05:02:12.483Z,1.83
2018-12-10T05:07:08.361Z,1.47
2018-12-10T05:12:04.205Z,2.00
2018-12-10T05:17:00.070Z,1.80
2018-12-10T05:21:56.234Z,2.00
2018-12-10T05:26:53.080Z,2.30
2018-12-10T05:31:51.021Z,2.20
2018-12-10T05:36:46.797Z,2.00
2018-12-10T05:41:42.622Z,2.00
2018-12-10T05:46:38.452Z,2.60
2018-12-10T05:51:34.259Z,2.30
2018-12-10T05:56:30.012Z,2.77
2018-12-10T06:01:25.928Z,2.92
2018-12-10T06:06:21.770Z,2.70
2018-12-10T06:11:17.776Z,2.17
2018-12-10T06:16:13.654Z,2.30
2018-12-10T06:21:09.428Z,2.07
2018-12-10T06:26:05.294Z,2.00
2018-12-10T06:31:01.127Z,2.37
2018-12-10T06:35:56.979Z,2.33
2018-12-10T06:40:52.890Z,2.50
2018-12-10T06:45:48.715Z,2.37
2018-12-10T06:50:45.315Z,1.90
2018-12-10T06:55:41.338Z,2.80
2018-12-10T07:00:37.708Z,3.07
2018-12-10T07:05:33.641Z,2.50
2018-12-10T07:10:29.454Z,2.60
2018-12-10T07:15:25.366Z,2.20
2018-12-10T07:20:21.174Z,2.33
2018-12-10T07:25:17.002Z,2.27
2018-12-10T07:30:13.811Z,2.00
2018-12-10T07:35:09.667Z,2.10
2018-12-10T07:40:06.659Z,2.27
2018-12-10T07:45:03.834Z,2.23
2018-12-10T08:01:53.231Z,1.92
2018-12-10T08:06:49.767Z,2.33
2018-12-10T08:11:45.544Z,2.00
2018-12-10T08:16:41.412Z,2.20
2018-12-10T08:21:37.213Z,2.17
2018-12-10T08:26:33.020Z,2.33
2018-12-10T08:31:29.043Z,2.10
2018-12-10T09:09:04.164Z,1.77
2018-12-10T09:13:59.915Z,2.17
2018-12-10T09:18:55.662Z,1.93
2018-12-10T09:23:51.434Z,2.07
2018-12-10T09:28:47.240Z,2.10
2018-12-10T09:33:43.079Z,2.40
2018-12-10T09:38:38.853Z,2.00
2018-12-10T09:43:34.590Z,2.03
2018-12-10T09:48:30.346Z,1.83
2018-12-10T09:53:26.110Z,1.70
2018-12-10T09:58:21.854Z,1.90
2018-12-10T10:03:17.640Z,1.77
2018-12-10T10:08:13.640Z,1.67
2018-12-10T10:13:09.424Z,2.07
2018-12-10T10:18:05.235Z,1.80
2018-12-10T10:23:01.030Z,1.70
2018-12-10T10:27:56.879Z,1.70
2018-12-10T10:32:52.596Z,1.90
2018-12-10T10:37:48.473Z,2.10
2018-12-10T10:42:44.323Z,1.87
2018-12-10T10:47:40.127Z,1.67
2018-12-10T10:52:35.882Z,1.70
2018-12-10T10:57:31.672Z,1.70
2018-12-10T11:02:33.535Z,1.90
2018-12-10T11:07:29.297Z,1.40
2018-12-10T11:12:25.076Z,2.07
2018-12-10T11:17:20.870Z,1.50
2018-12-10T11:22:16.646Z,1.50
2018-12-10T11:27:12.415Z,1.60
2018-12-10T11:32:08.186Z,2.10
2018-12-10T11:37:03.962Z,1.93
2018-12-10T11:41:59.740Z,1.50
2018-12-10T11:46:55.490Z,1.60
2018-12-10T11:51:51.275Z,1.93
2018-12-10T11:56:47.057Z,1.47
2018-12-10T12:01:42.828Z,1.63
2018-12-10T12:06:38.580Z,2.10
2018-12-10T12:11:34.356Z,1.77
2018-12-10T12:16:30.129Z,2.00
2018-12-10T12:21:25.901Z,1.70
2018-12-10T12:26:21.700Z,1.80
2018-12-10T12:31:17.636Z,1.80
2018-12-10T12:36:13.420Z,1.40
2018-12-10T12:41:09.199Z,1.40
2018-12-10T12:46:04.999Z,1.80
2018-12-10T12:51:00.817Z,2.13
2018-12-10T12:55:56.867Z,1.93
2018-12-10T13:00:52.706Z,1.97
2018-12-10T13:05:48.564Z,1.90
2018-12-10T13:10:44.347Z,2.30
2018-12-10T13:15:40.122Z,2.30
2018-12-10T13:20:35.863Z,1.67
2018-12-10T13:25:31.623Z,2.10
2018-12-10T13:30:27.730Z,1.70
2018-12-10T13:35:24.157Z,2.43
2018-12-10T13:40:19.924Z,1.90
2018-12-10T13:45:15.746Z,1.90
2018-12-10T13:50:11.652Z,2.40
2018-12-10T13:55:07.530Z,1.60
2018-12-10T14:00:04.494Z,1.57
2018-12-10T14:05:00.502Z,2.00
2018-12-10T14:09:56.265Z,1.97
2018-12-10T14:14:52.023Z,2.30
2018-12-10T14:19:47.774Z,2.27
2018-12-10T14:24:43.584Z,1.87
2018-12-10T14:29:39.481Z,2.23
2018-12-10T14:34:35.260Z,1.97
2018-12-10T14:39:31.024Z,2.50
2018-12-10T14:44:26.924Z,2.20
2018-12-10T14:49:22.712Z,2.43
2018-12-10T14:54:18.521Z,3.30
2018-12-10T14:59:14.289Z,2.70
2018-12-10T15:04:10.072Z,2.67
2018-12-10T15:09:06.002Z,2.93
2018-12-10T15:14:01.839Z,3.03
2018-12-10T15:18:57.613Z,3.43
2018-12-10T15:23:53.368Z,3.30
2018-12-10T15:28:49.096Z,4.67
2018-12-10T15:33:44.933Z,4.90
2018-12-10T15:38:40.700Z,4.13
2018-12-10T15:43:36.481Z,3.17
2018-12-10T15:48:32.277Z,3.23
2018-12-10T15:53:28.074Z,2.93
2018-12-10T15:58:23.855Z,2.40
2018-12-10T16:03:19.794Z,2.30
2018-12-10T16:08:15.568Z,2.60
2018-12-10T16:13:11.305Z,2.90
2018-12-10T16:18:07.084Z,2.73
2018-12-10T16:23:02.882Z,2.67
2018-12-10T16:27:58.726Z,2.70
2018-12-10T16:32:54.983Z,3.20
2018-12-10T16:37:50.722Z,2.80
2018-12-10T16:42:46.494Z,2.83
2018-12-10T16:47:42.380Z,2.83
2018-12-10T16:52:38.163Z,3.67
2018-12-10T16:57:33.905Z,3.13
2018-12-10T17:02:29.722Z,3.67
2018-12-10T17:07:25.508Z,3.93
2018-12-10T17:12:21.264Z,4.17
2018-12-10T17:17:17.060Z,4.37
2018-12-10T17:22:12.823Z,5.70
2018-12-10T17:27:08.598Z,5.20
2018-12-10T17:32:04.452Z,5.53
2018-12-10T17:37:00.216Z,5.03
2018-12-10T17:41:55.972Z,5.20
2018-12-10T17:46:51.781Z,4.83
2018-12-10T17:51:47.598Z,4.77
2018-12-10T17:56:43.607Z,4.37
2018-12-10T18:01:39.371Z,5.17
2018-12-10T18:06:35.247Z,4.00
2018-12-10T18:11:31.066Z,3.97
2018-12-10T18:16:26.866Z,8.60
2018-12-10T18:21:22.752Z,6.23
2018-12-10T18:26:18.556Z,5.10
2018-12-10T18:31:14.371Z,5.53
2018-12-10T18:36:10.263Z,6.23
2018-12-10T18:41:06.046Z,5.53
2018-12-10T18:46:01.821Z,5.43
2018-12-10T18:50:57.631Z,6.30
2018-12-10T18:55:53.407Z,5.03
2018-12-10T19:00:49.174Z,4.97
2018-12-10T19:05:44.945Z,4.90
2018-12-10T19:10:40.697Z,4.73
2018-12-10T19:15:36.494Z,5.27
2018-12-10T19:20:32.388Z,6.10
2018-12-10T19:25:28.144Z,5.73
2018-12-10T19:30:23.902Z,5.93
2018-12-10T19:35:19.671Z,5.90
2018-12-10T19:40:15.418Z,5.90
2018-12-10T19:45:11.195Z,5.97
2018-12-10T19:50:07.142Z,11.77
2018-12-10T19:55:03.442Z,9.90
2018-12-10T19:59:59.170Z,7.43
2018-12-10T20:04:54.947Z,7.27
2018-12-10T20:09:50.746Z,8.07
2018-12-10T20:14:46.558Z,9.57
2018-12-10T20:19:42.352Z,7.53
2018-12-10T20:24:38.119Z,6.70
2018-12-10T20:29:33.891Z,7.60
2018-12-10T20:34:29.750Z,6.90
2018-12-10T20:39:25.588Z,8.90
2018-12-10T20:44:21.338Z,8.40
2018-12-10T20:49:17.120Z,8.20
2018-12-10T20:54:12.935Z,6.53
2018-12-10T20:59:08.704Z,7.43
2018-12-10T21:04:04.444Z,6.80
2018-12-10T21:09:00.198Z,6.87
2018-12-10T21:13:56.011Z,7.10
2018-12-10T21:18:51.889Z,6.70
2018-12-10T21:23:47.675Z,6.47
2018-12-10T21:28:43.398Z,5.77
2018-12-10T21:33:39.203Z,6.20
2018-12-10T21:38:35.110Z,6.73
2018-12-10T21:43:30.928Z,5.97
2018-12-10T21:48:26.717Z,5.93
2018-12-10T21:53:22.476Z,5.17
2018-12-10T21:58:18.228Z,6.33
2018-12-10T22:03:13.998Z,6.03
2018-12-10T22:08:10.587Z,5.67
2018-12-10T22:13:06.564Z,5.17
2018-12-10T22:18:02.468Z,3.80
2018-12-10T22:22:58.226Z,4.23
2018-12-10T22:27:54.008Z,3.93
2018-12-10T22:32:49.812Z,3.00
2018-12-10T22:37:45.545Z,3.77
2018-12-10T22:42:41.359Z,3.60
2018-12-10T22:47:37.186Z,3.00
2018-12-10T22:52:32.954Z,2.97
2018-12-10T22:57:28.708Z,3.70
2018-12-10T23:02:24.482Z,3.23
2018-12-10T23:07:20.283Z,3.80
2018-12-10T23:12:16.081Z,4.00
2018-12-10T23:17:11.838Z,4.20
2018-12-10T23:22:07.592Z,4.80
2018-12-10T23:27:03.367Z,4.37
2018-12-10T23:31:59.123Z,4.47
2018-12-10T23:36:54.916Z,4.20
2018-12-10T23:41:50.644Z,4.30
2018-12-10T23:46:46.416Z,4.27
2018-12-10T23:51:42.211Z,4.60
2018-12-10T23:56:37.989Z,4.87
